Time;durP1;ratioP1;P1;durP2;ratioP2;P2;SDS_P1;SDS_P2;PMS_P1;PMS_P2;Temp;Humidity;BMP_temperature;BMP_pressure;BME280_temperature;BME280_humidity;BME280_pressure;Samples;Min_cycle;Max_cycle;Signal;HPM_P1;HPM_P2
2021/11/24 00:01:08;;;;;;;10.48;7.65;;;7.50;89.30;;;;;;4822405;29;20262;-73
2021/11/24 00:03:35;;;;;;;11.80;8.25;;;7.50;89.30;;;;;;4812174;29;20050;-72
2021/11/24 00:06:03;;;;;;;10.82;8.10;;;7.40;89.30;;;;;;4823071;29;20069;-73
2021/11/24 00:08:31;;;;;;;11.02;7.53;;;7.50;89.30;;;;;;4822858;29;20057;-72
2021/11/24 00:10:59;;;;;;;11.02;7.35;;;7.50;89.40;;;;;;4822828;29;20056;-73
2021/11/24 00:13:26;;;;;;;8.93;7.18;;;7.50;89.30;;;;;;4823365;29;20510;-73
2021/11/24 00:15:54;;;;;;;9.18;7.57;;;7.50;89.30;;;;;;4821843;29;20058;-73
2021/11/24 00:18:21;;;;;;;12.70;8.05;;;7.50;89.30;;;;;;4822115;29;21818;-73
2021/11/24 00:20:49;;;;;;;13.07;7.20;;;7.40;89.30;;;;;;4821562;29;20062;-73
2021/11/24 00:23:17;;;;;;;10.05;6.97;;;7.40;89.30;;;;;;4823136;29;20042;-73
2021/11/24 00:25:45;;;;;;;8.40;7.07;;;7.50;89.30;;;;;;4822773;29;20042;-73
2021/11/24 00:28:12;;;;;;;10.70;7.32;;;7.50;89.20;;;;;;4817490;29;20050;-73
2021/11/24 00:30:40;;;;;;;11.68;6.97;;;7.50;89.20;;;;;;4814546;29;20069;-73
2021/11/24 00:33:08;;;;;;;10.75;6.88;;;7.50;89.10;;;;;;4823029;29;20047;-73
2021/11/24 00:35:35;;;;;;;9.75;7.00;;;7.50;89.10;;;;;;4822474;29;20081;-73
2021/11/24 00:38:03;;;;;;;9.15;6.70;;;7.40;89.10;;;;;;4822367;29;20046;-74
2021/11/24 00:40:30;;;;;;;7.57;5.57;;;7.50;88.90;;;;;;4822173;29;20130;-73
2021/11/24 00:42:58;;;;;;;6.57;5.53;;;7.50;88.70;;;;;;4822058;29;20509;-73
2021/11/24 00:45:26;;;;;;;8.75;5.53;;;7.50;88.50;;;;;;4821215;29;20062;-74
2021/11/24 00:47:53;;;;;;;7.82;4.80;;;7.60;88.20;;;;;;4821767;29;20069;-73
2021/11/24 00:50:21;;;;;;;6.78;5.18;;;7.60;87.90;;;;;;4822332;29;20050;-74
2021/11/24 00:52:51;;;;;;;8.52;5.03;;;7.60;87.70;;;;;;4822667;29;20054;-74
2021/11/24 00:55:19;;;;;;;8.02;5.88;;;7.60;87.50;;;;;;4820240;29;20244;-73
2021/11/24 00:57:46;;;;;;;8.48;5.53;;;7.60;87.50;;;;;;4821996;29;20884;-73
2021/11/24 01:00:16;;;;;;;9.18;5.70;;;7.70;87.50;;;;;;4822001;29;20054;-73
2021/11/24 01:02:44;;;;;;;8.60;6.15;;;7.60;87.40;;;;;;4822109;29;20065;-74
2021/11/24 01:05:13;;;;;;;9.43;6.32;;;7.70;87.50;;;;;;4834961;29;20494;-73
2021/11/24 01:07:40;;;;;;;12.43;6.20;;;7.60;87.50;;;;;;4822549;29;20050;-74
2021/11/24 01:10:09;;;;;;;10.30;6.00;;;7.70;87.60;;;;;;4821298;29;20054;-73
2021/11/24 01:12:38;;;;;;;8.88;6.10;;;7.60;87.60;;;;;;4835850;29;20061;-74
2021/11/24 01:15:07;;;;;;;8.10;6.20;;;7.60;87.60;;;;;;4817417;29;20065;-73
2021/11/24 01:17:35;;;;;;;9.05;5.93;;;7.60;87.60;;;;;;4821536;29;20166;-73
2021/11/24 01:20:04;;;;;;;7.85;6.15;;;7.60;87.60;;;;;;4822132;29;20409;-73
2021/11/24 01:22:32;;;;;;;6.88;5.95;;;7.60;87.70;;;;;;4821080;29;20062;-73
2021/11/24 01:24:59;;;;;;;8.15;6.45;;;7.60;87.70;;;;;;4818083;29;20061;-73
2021/11/24 01:27:27;;;;;;;9.55;6.60;;;7.60;87.70;;;;;;4822366;29;20046;-73
2021/11/24 01:29:54;;;;;;;11.40;7.13;;;7.60;87.70;;;;;;4805600;29;20050;-73
2021/11/24 01:32:22;;;;;;;8.95;6.10;;;7.60;87.70;;;;;;4821014;29;20489;-73
2021/11/24 01:34:49;;;;;;;7.30;5.90;;;7.60;87.70;;;;;;4820827;29;20089;-73
2021/11/24 01:37:17;;;;;;;7.18;6.05;;;7.60;87.70;;;;;;4821654;29;20049;-73
2021/11/24 01:39:45;;;;;;;7.25;5.97;;;7.60;87.70;;;;;;4821006;29;20516;-73
2021/11/24 01:42:12;;;;;;;10.48;7.15;;;7.60;87.70;;;;;;4820807;29;20050;-73
2021/11/24 01:44:40;;;;;;;9.30;6.97;;;7.60;87.70;;;;;;4820439;29;20069;-73
2021/11/24 01:47:07;;;;;;;10.00;7.35;;;7.60;87.70;;;;;;4820661;29;20054;-73
2021/11/24 01:49:35;;;;;;;8.27;7.18;;;7.60;87.80;;;;;;4821698;29;20410;-73
2021/11/24 01:52:03;;;;;;;9.73;7.75;;;7.60;87.90;;;;;;4823701;29;20416;-73
2021/11/24 01:54:32;;;;;;;14.88;7.90;;;7.60;87.90;;;;;;4823607;29;20059;-73
2021/11/24 01:57:01;;;;;;;14.73;7.65;;;7.60;88.00;;;;;;4839009;29;20416;-73
2021/11/24 01:59:29;;;;;;;13.15;7.90;;;7.60;88.00;;;;;;4823954;29;20058;-73
2021/11/24 02:01:57;;;;;;;12.35;8.48;;;7.60;88.10;;;;;;4838514;29;20402;-73
2021/11/24 02:04:25;;;;;;;13.13;7.90;;;7.60;88.20;;;;;;4824466;29;20051;-73
2021/11/24 02:06:53;;;;;;;10.85;7.95;;;7.60;88.20;;;;;;4824569;29;20054;-74
2021/11/24 02:09:21;;;;;;;9.65;8.20;;;7.50;88.20;;;;;;4823546;29;20073;-74
2021/11/24 02:11:49;;;;;;;11.82;9.02;;;7.60;88.30;;;;;;4824634;29;20061;-74
2021/11/24 02:14:17;;;;;;;10.68;9.00;;;7.60;88.10;;;;;;4824580;29;20054;-74
2021/11/24 02:16:50;;;;;;;10.82;9.38;;;7.60;88.10;;;;;;4825021;29;20059;-73
2021/11/24 02:19:20;;;;;;;14.32;9.82;;;7.60;88.10;;;;;;4824910;29;20051;-73
2021/11/24 02:21:53;;;;;;;9.60;8.65;;;7.60;88.10;;;;;;4824662;29;20055;-74
2021/11/24 02:24:23;;;;;;;11.13;8.87;;;7.60;88.20;;;;;;4823949;29;20051;-73
2021/11/24 02:26:51;;;;;;;11.82;8.68;;;7.60;88.20;;;;;;4824152;29;20074;-73
2021/11/24 02:29:19;;;;;;;12.10;8.23;;;7.60;88.30;;;;;;4817713;29;20070;-73
2021/11/24 02:31:48;;;;;;;12.60;8.70;;;7.50;88.30;;;;;;4824190;29;20062;-73
2021/11/24 02:34:17;;;;;;;12.25;8.88;;;7.50;88.40;;;;;;4814276;29;20077;-73
2021/11/24 02:36:44;;;;;;;12.23;8.27;;;7.50;88.50;;;;;;4831817;29;20054;-73
2021/11/24 02:39:13;;;;;;;13.82;8.82;;;7.60;88.60;;;;;;4813919;29;20065;-72
2021/11/24 02:41:42;;;;;;;12.48;9.00;;;7.60;88.60;;;;;;4820602;29;20517;-73
2021/11/24 02:44:18;;;;;;;11.13;9.43;;;7.50;88.60;;;;;;4823774;29;20438;-73
2021/11/24 02:46:47;;;;;;;14.38;9.30;;;7.50;88.70;;;;;;4823634;29;20421;-72
2021/11/24 02:49:14;;;;;;;15.27;9.32;;;7.50;88.70;;;;;;4824660;29;20043;-72
2021/11/24 02:51:42;;;;;;;15.80;10.20;;;7.50;88.70;;;;;;4824562;29;20058;-72
2021/11/24 02:54:11;;;;;;;10.55;9.40;;;7.50;88.80;;;;;;4824108;29;20038;-72
2021/11/24 02:56:39;;;;;;;14.80;10.32;;;7.50;88.80;;;;;;4821706;29;20039;-72
2021/11/24 02:59:09;;;;;;;12.07;9.70;;;7.50;88.90;;;;;;4816459;29;20047;-72
2021/11/24 03:01:40;;;;;;;12.93;10.43;;;7.50;88.90;;;;;;4811046;29;20045;-73
2021/11/24 03:04:08;;;;;;;13.20;10.45;;;7.50;88.90;;;;;;4807474;29;20061;-73
2021/11/24 03:06:36;;;;;;;12.40;10.88;;;7.50;88.90;;;;;;4823352;29;20066;-72
2021/11/24 03:09:05;;;;;;;16.52;10.95;;;7.50;88.80;;;;;;4823736;29;20521;-73
2021/11/24 03:11:33;;;;;;;13.15;11.65;;;7.50;88.80;;;;;;4823964;29;20061;-72
2021/11/24 03:14:01;;;;;;;14.35;11.40;;;7.50;88.80;;;;;;4822977;29;20054;-72
2021/11/24 03:16:28;;;;;;;15.38;11.15;;;7.40;88.80;;;;;;4824484;29;20375;-72
2021/11/24 03:18:56;;;;;;;14.25;11.02;;;7.50;88.80;;;;;;4823356;29;20493;-72
2021/11/24 03:21:23;;;;;;;17.00;11.75;;;7.40;88.80;;;;;;4823424;29;20073;-72
2021/11/24 03:23:51;;;;;;;14.27;12.10;;;7.50;88.80;;;;;;4819080;29;20047;-72
2021/11/24 03:26:19;;;;;;;14.13;11.98;;;7.50;88.80;;;;;;4818836;29;20058;-72
2021/11/24 03:28:46;;;;;;;14.38;11.43;;;7.50;88.90;;;;;;4821075;29;20394;-72
2021/11/24 03:31:14;;;;;;;14.65;11.48;;;7.40;88.90;;;;;;4816577;29;20066;-72
2021/11/24 03:33:41;;;;;;;17.33;11.43;;;7.40;88.90;;;;;;4814181;29;20046;-72
2021/11/24 03:36:09;;;;;;;14.50;10.70;;;7.40;89.00;;;;;;4814069;29;20050;-72
2021/11/24 03:38:37;;;;;;;11.55;9.63;;;7.50;89.00;;;;;;4815284;29;20513;-72
2021/11/24 03:41:05;;;;;;;11.80;9.20;;;7.40;89.00;;;;;;4816637;29;20050;-72
2021/11/24 03:43:32;;;;;;;11.85;9.57;;;7.50;89.10;;;;;;4823263;29;20053;-72
2021/11/24 03:46:00;;;;;;;13.43;11.23;;;7.40;89.00;;;;;;4822473;29;20442;-73
2021/11/24 03:48:28;;;;;;;13.60;10.45;;;7.40;89.00;;;;;;4822958;29;20501;-72
2021/11/24 03:50:56;;;;;;;12.27;10.10;;;7.40;89.00;;;;;;4815260;29;20050;-73
2021/11/24 03:53:23;;;;;;;16.38;10.55;;;7.40;89.00;;;;;;4815716;29;20062;-72
2021/11/24 03:55:51;;;;;;;11.02;9.98;;;7.40;89.00;;;;;;4813642;29;20074;-72
2021/11/24 03:58:18;;;;;;;12.85;9.52;;;7.40;89.00;;;;;;4817287;29;20051;-72
2021/11/24 04:00:46;;;;;;;13.98;9.32;;;7.40;89.00;;;;;;4812799;29;20066;-72
2021/11/24 04:03:14;;;;;;;10.45;9.20;;;7.40;89.00;;;;;;4816760;29;20047;-72
2021/11/24 04:05:41;;;;;;;13.10;11.40;;;7.40;89.10;;;;;;4815889;29;20059;-72
2021/11/24 04:08:09;;;;;;;13.02;10.75;;;7.40;89.10;;;;;;4810877;29;20050;-72
2021/11/24 04:10:36;;;;;;;17.17;11.07;;;7.40;89.10;;;;;;4810520;29;20689;-72
2021/11/24 04:13:04;;;;;;;14.85;11.05;;;7.40;89.10;;;;;;4815246;29;20511;-73
2021/11/24 04:15:31;;;;;;;12.18;10.23;;;7.40;89.10;;;;;;4810076;29;20055;-72
2021/11/24 04:17:59;;;;;;;17.85;11.50;;;7.40;89.20;;;;;;4814037;29;20050;-73
2021/11/24 04:20:27;;;;;;;15.38;10.40;;;7.40;89.20;;;;;;4816455;29;20058;-73
2021/11/24 04:22:54;;;;;;;12.90;10.75;;;7.40;89.20;;;;;;4813832;29;20058;-73
2021/11/24 04:25:22;;;;;;;15.52;10.50;;;7.40;89.20;;;;;;4829092;29;20057;-73
2021/11/24 04:27:51;;;;;;;13.15;10.93;;;7.40;89.20;;;;;;4811143;29;20066;-73
2021/11/24 04:30:19;;;;;;;13.13;10.88;;;7.40;89.20;;;;;;4812182;29;20061;-73
2021/11/24 04:32:47;;;;;;;12.07;8.93;;;7.40;89.20;;;;;;4810773;29;20148;-73
2021/11/24 04:35:14;;;;;;;10.95;6.93;;;7.30;89.30;;;;;;4817084;29;20051;-73
2021/11/24 04:37:42;;;;;;;8.80;7.35;;;7.30;89.30;;;;;;4820583;29;20058;-73
2021/11/24 04:40:10;;;;;;;7.55;6.07;;;7.30;89.30;;;;;;4822144;29;20122;-73
2021/11/24 04:42:40;;;;;;;8.05;5.80;;;7.30;89.30;;;;;;4822621;29;20047;-73
2021/11/24 04:45:08;;;;;;;9.02;6.15;;;7.30;89.30;;;;;;4821234;29;20531;-73
2021/11/24 04:47:36;;;;;;;9.88;6.22;;;7.30;89.40;;;;;;4821027;29;20379;-73
2021/11/24 04:50:04;;;;;;;7.47;5.80;;;7.30;89.50;;;;;;4822474;29;20068;-73
2021/11/24 04:52:31;;;;;;;9.85;5.95;;;7.30;89.60;;;;;;4803178;29;20047;-73
2021/11/24 04:54:59;;;;;;;7.53;6.05;;;7.30;89.70;;;;;;4817836;29;20050;-73
2021/11/24 04:57:27;;;;;;;8.70;6.57;;;7.30;89.70;;;;;;4821205;29;20532;-73
2021/11/24 04:59:54;;;;;;;9.10;7.05;;;7.30;89.90;;;;;;4821742;29;20060;-73
2021/11/24 05:02:22;;;;;;;11.65;7.35;;;7.20;90.00;;;;;;4822528;29;20058;-73
2021/11/24 05:04:50;;;;;;;8.52;7.40;;;7.20;90.00;;;;;;4821045;29;20477;-73
2021/11/24 05:07:17;;;;;;;8.65;6.65;;;7.20;90.20;;;;;;4822229;29;20057;-73
2021/11/24 05:09:59;;;;;;;11.27;7.88;;;7.10;90.50;;;;;;4821831;29;20444;-73
2021/11/24 05:12:27;;;;;;;11.88;7.80;;;7.10;90.60;;;;;;4821965;29;20062;-73
2021/11/24 05:14:56;;;;;;;20.38;10.00;;;7.10;90.70;;;;;;4810276;29;20057;-73
2021/11/24 05:17:25;;;;;;;9.50;7.40;;;7.00;91.00;;;;;;4821580;29;20081;-72
2021/11/24 05:19:53;;;;;;;9.55;4.75;;;7.00;91.00;;;;;;4822442;29;20374;-73
2021/11/24 05:22:21;;;;;;;14.60;6.32;;;7.00;91.00;;;;;;4822077;29;20054;-73
2021/11/24 05:24:51;;;;;;;13.00;7.78;;;6.90;91.10;;;;;;4816815;29;20062;-72
2021/11/24 05:27:18;;;;;;;17.90;7.50;;;6.80;91.10;;;;;;4814901;29;20058;-74
2021/11/24 05:29:46;;;;;;;21.45;6.70;;;6.80;91.30;;;;;;4821971;29;20130;-73
2021/11/24 05:32:14;;;;;;;10.82;7.85;;;6.70;91.40;;;;;;4821952;29;20051;-73
2021/11/24 05:34:41;;;;;;;13.10;6.85;;;6.70;91.50;;;;;;4821257;29;20059;-73
2021/11/24 05:37:09;;;;;;;12.23;7.30;;;6.70;91.60;;;;;;4820394;29;20065;-72
2021/11/24 05:39:37;;;;;;;10.43;7.18;;;6.60;91.60;;;;;;4821986;29;20431;-72
2021/11/24 05:42:05;;;;;;;17.02;11.45;;;6.60;91.70;;;;;;4821982;29;20516;-73
2021/11/24 05:44:36;;;;;;;17.10;8.32;;;6.50;91.80;;;;;;4821397;29;20069;-73
2021/11/24 05:47:10;;;;;;;47.75;9.30;;;6.50;91.90;;;;;;4821381;29;20051;-73
2021/11/24 05:49:39;;;;;;;15.85;7.43;;;6.50;91.90;;;;;;4821301;29;20043;-73
2021/11/24 05:52:08;;;;;;;16.27;6.22;;;6.50;92.00;;;;;;4829945;29;20073;-72
2021/11/24 05:54:36;;;;;;;16.63;7.55;;;6.40;92.10;;;;;;4820036;29;20046;-72
2021/11/24 05:57:04;;;;;;;15.40;7.15;;;6.40;92.20;;;;;;4821642;29;20478;-72
2021/11/24 05:59:34;;;;;;;10.10;6.63;;;6.40;92.20;;;;;;4820668;29;20050;-72
2021/11/24 06:02:02;;;;;;;11.82;7.75;;;6.40;92.30;;;;;;4848616;29;20054;-72
2021/11/24 06:04:29;;;;;;;18.95;7.68;;;6.30;92.30;;;;;;4827479;29;20524;-72
2021/11/24 06:06:57;;;;;;;17.73;7.53;;;6.30;92.40;;;;;;4821449;29;20050;-73
2021/11/24 06:09:25;;;;;;;12.90;7.93;;;6.30;92.50;;;;;;4821582;29;20046;-73
2021/11/24 06:11:52;;;;;;;31.73;7.80;;;6.30;92.50;;;;;;4821231;29;20069;-72
2021/11/24 06:14:20;;;;;;;12.13;6.95;;;6.30;92.50;;;;;;4821176;29;20398;-72
2021/11/24 06:16:47;;;;;;;13.05;7.60;;;6.30;92.60;;;;;;4821257;29;20050;-72
2021/11/24 06:19:15;;;;;;;15.52;7.55;;;6.30;92.60;;;;;;4823026;29;20048;-73
2021/11/24 06:21:42;;;;;;;16.08;8.27;;;6.30;92.70;;;;;;4821769;29;20409;-73
2021/11/24 06:24:11;;;;;;;23.20;8.40;;;6.30;92.70;;;;;;4820442;29;20065;-73
2021/11/24 06:26:38;;;;;;;13.98;7.93;;;6.30;92.60;;;;;;4821155;29;20046;-73
2021/11/24 06:29:06;;;;;;;14.40;7.68;;;6.30;92.70;;;;;;4825363;29;20042;-73
2021/11/24 06:31:34;;;;;;;14.77;7.43;;;6.30;92.70;;;;;;4821729;29;20050;-73
2021/11/24 06:34:02;;;;;;;11.43;7.70;;;6.30;92.70;;;;;;4820758;29;20066;-73
2021/11/24 06:36:50;;;;;;;14.23;7.82;;;6.30;92.70;;;;;;4822283;29;20047;-72
2021/11/24 06:39:17;;;;;;;15.23;7.30;;;6.20;92.70;;;;;;4830415;29;20062;-73
2021/11/24 06:41:45;;;;;;;14.45;6.65;;;6.20;92.70;;;;;;4807362;29;20061;-72
2021/11/24 06:44:13;;;;;;;10.38;7.18;;;6.30;92.70;;;;;;4820265;29;20053;-72
2021/11/24 06:46:41;;;;;;;11.60;7.22;;;6.20;92.70;;;;;;4824385;29;20043;-72
2021/11/24 06:49:08;;;;;;;10.15;7.57;;;6.20;92.70;;;;;;4823943;29;20245;-72
2021/11/24 06:51:36;;;;;;;14.77;8.27;;;6.20;92.70;;;;;;4819480;29;20058;-72
2021/11/24 06:54:03;;;;;;;12.82;7.35;;;6.20;92.70;;;;;;4823729;29;20050;-73
2021/11/24 06:56:31;;;;;;;10.98;6.43;;;6.20;92.60;;;;;;4824564;29;20061;-73
2021/11/24 06:58:58;;;;;;;12.00;7.40;;;6.20;92.60;;;;;;4823473;29;20498;-72
2021/11/24 07:01:26;;;;;;;11.13;7.13;;;6.20;92.60;;;;;;4830949;29;20423;-72
2021/11/24 07:04:03;;;;;;;10.70;7.75;;;6.20;92.50;;;;;;4825489;29;20413;-74
2021/11/24 07:06:31;;;;;;;9.40;7.05;;;6.20;92.50;;;;;;4820559;29;20058;-73
2021/11/24 07:08:58;;;;;;;14.18;7.55;;;6.20;92.40;;;;;;4822767;29;20049;-73
2021/11/24 07:11:30;;;;;;;17.80;7.88;;;6.20;92.40;;;;;;4822820;29;20058;-73
2021/11/24 07:13:59;;;;;;;13.77;7.72;;;6.20;92.40;;;;;;4823552;29;20054;-73
2021/11/24 07:16:26;;;;;;;9.27;6.90;;;6.20;92.40;;;;;;4825016;29;20050;-73
2021/11/24 07:18:54;;;;;;;9.02;6.18;;;6.20;92.40;;;;;;4802459;29;20035;-73
2021/11/24 07:21:22;;;;;;;9.90;6.40;;;6.20;92.30;;;;;;4820468;29;20550;-73
2021/11/24 07:23:49;;;;;;;14.10;6.65;;;6.20;92.30;;;;;;4823169;29;20053;-73
2021/11/24 07:26:17;;;;;;;6.75;5.75;;;6.20;92.20;;;;;;4821849;29;20058;-73
2021/11/24 07:28:45;;;;;;;9.52;6.50;;;6.20;92.10;;;;;;4823599;29;20054;-73
2021/11/24 07:31:13;;;;;;;10.43;6.60;;;6.20;92.00;;;;;;4826758;29;20048;-73
2021/11/24 07:33:40;;;;;;;12.93;6.07;;;6.20;91.90;;;;;;4824254;29;20051;-73
2021/11/24 07:36:08;;;;;;;12.60;6.80;;;6.20;91.90;;;;;;4823604;29;20046;-73
2021/11/24 07:38:36;;;;;;;11.63;5.97;;;6.10;91.90;;;;;;4826014;29;20065;-73
2021/11/24 07:41:04;;;;;;;8.27;6.70;;;6.10;91.90;;;;;;4821509;29;20046;-73
2021/11/24 07:43:31;;;;;;;11.00;6.28;;;6.10;91.80;;;;;;4825533;29;20061;-71
2021/11/24 07:45:59;;;;;;;6.88;5.72;;;6.20;91.70;;;;;;4822650;29;20046;-72
2021/11/24 07:48:27;;;;;;;9.45;5.82;;;6.20;91.60;;;;;;4821851;29;20065;-72
2021/11/24 07:50:55;;;;;;;10.98;6.40;;;6.20;91.50;;;;;;4829613;29;20050;-73
2021/11/24 07:53:23;;;;;;;7.55;6.03;;;6.20;91.30;;;;;;4821937;29;20058;-73
2021/11/24 07:55:50;;;;;;;6.15;5.10;;;6.20;91.20;;;;;;4823231;29;20205;-73
2021/11/24 07:58:19;;;;;;;8.13;5.38;;;6.20;91.00;;;;;;4821716;29;20062;-73
2021/11/24 08:00:47;;;;;;;9.45;5.63;;;6.30;90.80;;;;;;4822714;29;20058;-74
2021/11/24 08:03:15;;;;;;;6.00;5.10;;;6.20;90.80;;;;;;4822149;29;20058;-73
2021/11/24 08:05:43;;;;;;;6.38;5.13;;;6.30;90.60;;;;;;4820945;29;20053;-73
2021/11/24 08:08:11;;;;;;;9.05;4.70;;;6.30;90.40;;;;;;4822395;29;20058;-75
2021/11/24 08:10:39;;;;;;;8.50;5.03;;;6.30;90.40;;;;;;4823536;29;20053;-73
2021/11/24 08:13:06;;;;;;;5.22;4.05;;;6.30;90.30;;;;;;4822007;29;20062;-74
2021/11/24 08:15:37;;;;;;;5.43;4.50;;;6.30;90.20;;;;;;4822723;29;20066;-72
2021/11/24 08:18:05;;;;;;;5.30;4.15;;;6.30;90.00;;;;;;4819175;29;20058;-74
2021/11/24 08:20:33;;;;;;;4.93;4.25;;;6.30;89.90;;;;;;4817907;29;20068;-74
2021/11/24 08:23:00;;;;;;;5.07;4.00;;;6.30;89.90;;;;;;4822221;29;20058;-73
2021/11/24 08:25:28;;;;;;;6.35;4.35;;;6.30;89.70;;;;;;4822886;29;20462;-73
2021/11/24 08:27:56;;;;;;;5.47;4.43;;;6.30;89.40;;;;;;4822330;29;20050;-73
2021/11/24 08:30:24;;;;;;;6.82;4.22;;;6.30;89.30;;;;;;4819421;29;20060;-73
2021/11/24 08:32:52;;;;;;;5.00;4.50;;;6.40;89.20;;;;;;4821605;29;20054;-72
2021/11/24 08:35:21;;;;;;;7.30;4.28;;;6.30;89.10;;;;;;4821386;29;20792;-73
2021/11/24 08:37:48;;;;;;;5.15;3.90;;;6.40;89.00;;;;;;4822638;29;20401;-72
2021/11/24 08:40:16;;;;;;;5.63;4.40;;;6.40;88.90;;;;;;4823289;29;20058;-73
2021/11/24 08:42:44;;;;;;;5.63;4.53;;;6.40;88.90;;;;;;4822976;29;20050;-73
2021/11/24 08:45:12;;;;;;;5.20;4.22;;;6.30;89.00;;;;;;4822708;29;20050;-73
2021/11/24 08:47:40;;;;;;;6.97;5.03;;;6.40;89.10;;;;;;4822497;29;20058;-73
2021/11/24 08:50:12;;;;;;;5.90;4.45;;;6.40;89.10;;;;;;4823264;29;20051;-73
2021/11/24 08:52:40;;;;;;;5.88;4.47;;;6.30;89.30;;;;;;4822993;29;20058;-73
2021/11/24 08:55:09;;;;;;;7.57;5.00;;;6.30;89.40;;;;;;4820908;29;20417;-74
2021/11/24 08:57:37;;;;;;;6.35;5.40;;;6.30;89.50;;;;;;4821643;29;20496;-73
2021/11/24 09:00:08;;;;;;;7.75;5.15;;;6.30;89.60;;;;;;4821858;29;20058;-73
2021/11/24 09:02:36;;;;;;;7.15;5.43;;;6.30;89.70;;;;;;4836828;29;20050;-73
2021/11/24 09:05:04;;;;;;;6.97;5.00;;;6.30;89.70;;;;;;4822495;29;20062;-74
2021/11/24 09:07:32;;;;;;;7.32;5.80;;;6.30;89.60;;;;;;4823067;29;20049;-73
2021/11/24 09:10:01;;;;;;;5.32;4.63;;;6.30;89.60;;;;;;4822521;29;20050;-74
2021/11/24 09:12:28;;;;;;;6.88;6.18;;;6.30;89.60;;;;;;4830403;29;20061;-86
2021/11/24 09:14:56;;;;;;;8.32;6.60;;;6.30;89.60;;;;;;4805867;29;20065;-74
2021/11/24 09:17:24;;;;;;;6.82;5.63;;;6.20;89.60;;;;;;4821635;29;20061;-74
2021/11/24 09:19:52;;;;;;;8.70;6.65;;;6.10;89.80;;;;;;4820242;29;20053;-74
2021/11/24 09:22:38;;;;;;;8.80;5.55;;;6.00;89.90;;;;;;4821679;29;20042;-74
2021/11/24 09:25:08;;;;;;;7.15;5.55;;;6.00;89.90;;;;;;4821879;29;20066;-74
2021/11/24 09:27:47;;;;;;;8.77;5.85;;;6.00;90.00;;;;;;4821881;29;20070;-74
2021/11/24 09:30:16;;;;;;;9.05;6.03;;;6.00;90.00;;;;;;4820656;29;20405;-73
2021/11/24 09:32:44;;;;;;;8.48;5.50;;;6.00;90.00;;;;;;4820729;29;20054;-72
2021/11/24 09:35:12;;;;;;;9.70;5.88;;;6.10;89.90;;;;;;4820349;29;20054;-74
2021/11/24 09:37:40;;;;;;;8.25;5.47;;;6.10;89.80;;;;;;4821146;29;20047;-74
2021/11/24 09:40:09;;;;;;;6.82;5.03;;;6.20;89.50;;;;;;4820946;29;20054;-73
2021/11/24 09:42:41;;;;;;;7.63;4.75;;;6.20;89.40;;;;;;4820578;29;20260;-74
2021/11/24 09:45:09;;;;;;;6.60;5.53;;;6.20;89.30;;;;;;4821937;29;20042;-74
2021/11/24 09:47:37;;;;;;;7.85;5.35;;;6.30;89.20;;;;;;4836051;29;20077;-73
2021/11/24 09:50:07;;;;;;;7.10;5.32;;;6.40;89.10;;;;;;4820856;29;20051;-74
2021/11/24 09:52:36;;;;;;;7.70;5.38;;;6.50;89.00;;;;;;4821078;29;20065;-74
2021/11/24 09:55:05;;;;;;;6.25;5.05;;;6.60;88.70;;;;;;4821813;29;20046;-74
2021/11/24 09:57:33;;;;;;;5.32;4.82;;;6.60;88.40;;;;;;4822364;29;20062;-73
2021/11/24 10:00:00;;;;;;;6.00;4.95;;;6.70;88.10;;;;;;4822211;29;20058;-74
2021/11/24 10:02:39;;;;;;;5.18;4.43;;;6.60;87.80;;;;;;4822052;29;20113;-74
2021/11/24 10:05:08;;;;;;;9.82;5.50;;;6.70;87.40;;;;;;4821281;29;20062;-74
2021/11/24 10:07:39;;;;;;;7.25;5.65;;;6.70;87.30;;;;;;4821448;29;20054;-73
2021/11/24 10:10:07;;;;;;;8.57;5.55;;;6.70;87.50;;;;;;4821457;29;20058;-75
2021/11/24 10:12:34;;;;;;;6.30;5.05;;;6.80;87.50;;;;;;4822800;29;20053;-74
2021/11/24 10:15:04;;;;;;;6.70;5.30;;;6.80;87.30;;;;;;4825160;29;20490;-75
2021/11/24 10:17:31;;;;;;;6.28;5.05;;;6.90;87.20;;;;;;4825050;29;20057;-74
2021/11/24 10:20:09;;;;;;;6.68;5.47;;;6.90;87.20;;;;;;4825226;29;20050;-74
2021/11/24 10:22:41;;;;;;;6.90;5.80;;;6.90;86.80;;;;;;4824819;29;20050;-74
2021/11/24 10:25:12;;;;;;;6.65;5.97;;;7.00;86.70;;;;;;4824466;29;20053;-74
2021/11/24 10:27:45;;;;;;;8.45;5.63;;;7.10;86.50;;;;;;4825368;29;20885;-74
2021/11/24 10:30:26;;;;;;;7.30;5.43;;;7.20;86.40;;;;;;4824619;29;20498;-74
2021/11/24 10:32:55;;;;;;;5.55;4.50;;;7.20;85.60;;;;;;4825090;29;20050;-73
2021/11/24 10:35:27;;;;;;;5.20;4.00;;;7.20;85.00;;;;;;4824942;29;20055;-73
2021/11/24 10:38:13;;;;;;;7.35;4.70;;;7.30;84.70;;;;;;4825156;29;20050;-74
2021/11/24 10:40:43;;;;;;;8.40;4.28;;;7.30;84.50;;;;;;4824949;29;20065;-75
2021/11/24 10:43:15;;;;;;;3.92;3.63;;;7.30;83.80;;;;;;4825523;29;20050;-74
2021/11/24 10:45:54;;;;;;;3.87;3.47;;;7.40;83.60;;;;;;4807778;29;20055;-75
2021/11/24 10:48:29;;;;;;;8.32;3.83;;;7.40;83.30;;;;;;4807634;29;20051;-74
2021/11/24 10:51:00;;;;;;;5.07;3.30;;;7.50;83.20;;;;;;4806947;29;20065;-74
2021/11/24 10:53:29;;;;;;;5.07;3.85;;;7.50;82.60;;;;;;4809075;29;20082;-75
2021/11/24 10:56:06;;;;;;;4.82;3.58;;;7.50;82.20;;;;;;4808788;29;20054;-75
2021/11/24 10:58:38;;;;;;;7.45;3.42;;;7.60;82.10;;;;;;4822936;29;20065;-73
2021/11/24 11:01:21;;;;;;;5.65;3.72;;;7.60;82.30;;;;;;4793392;29;20059;-74
2021/11/24 11:03:49;;;;;;;5.75;4.13;;;7.60;81.90;;;;;;4823653;29;20413;-74
2021/11/24 11:06:28;;;;;;;6.97;4.32;;;7.60;81.50;;;;;;4824387;29;20046;-74
2021/11/24 11:08:58;;;;;;;8.15;4.85;;;7.50;81.90;;;;;;4824689;29;20046;-74
2021/11/24 11:11:34;;;;;;;6.97;4.63;;;7.30;82.10;;;;;;4808895;29;20397;-74
2021/11/24 11:14:18;;;;;;;7.65;4.53;;;7.20;82.40;;;;;;4811317;29;20050;-74
2021/11/24 11:16:50;;;;;;;7.95;4.63;;;7.20;82.60;;;;;;4824749;29;20061;-74
2021/11/24 11:19:41;;;;;;;5.00;4.22;;;7.20;83.00;;;;;;4824700;29;20062;-75
2021/11/24 11:22:14;;;;;;;7.47;4.35;;;7.30;83.10;;;;;;4823095;29;20058;-73
2021/11/24 11:24:42;;;;;;;4.65;3.80;;;7.60;82.90;;;;;;4822092;29;20050;-74
2021/11/24 11:27:10;;;;;;;6.85;3.90;;;7.90;82.20;;;;;;4824965;29;20054;-74
2021/11/24 11:29:41;;;;;;;4.28;3.30;;;8.20;80.60;;;;;;4825440;29;20428;-74
2021/11/24 11:32:09;;;;;;;11.15;3.58;;;8.30;79.40;;;;;;4824089;29;20066;-75
2021/11/24 11:34:38;;;;;;;7.63;3.60;;;8.50;79.10;;;;;;4814940;29;20054;-75
2021/11/24 11:37:06;;;;;;;3.83;3.40;;;8.50;78.20;;;;;;4823538;29;20417;-74
2021/11/24 11:39:35;;;;;;;3.92;3.30;;;8.40;78.50;;;;;;4824665;29;20050;-74
2021/11/24 11:42:13;;;;;;;5.95;3.70;;;8.30;78.60;;;;;;4808686;29;20046;-73
2021/11/24 11:45:06;;;;;;;4.60;2.72;;;8.30;78.80;;;;;;4824247;29;20062;-74
2021/11/24 11:47:55;;;;;;;4.55;3.10;;;8.30;78.20;;;;;;4824529;29;20071;-74
2021/11/24 11:50:38;;;;;;;4.50;3.30;;;8.20;78.00;;;;;;4824331;29;20058;-74
2021/11/24 11:53:25;;;;;;;4.28;3.38;;;8.00;78.10;;;;;;4824164;29;20055;-74
2021/11/24 11:56:21;;;;;;;4.45;3.28;;;7.90;78.60;;;;;;4820003;29;20059;-74
2021/11/24 11:59:16;;;;;;;3.85;3.28;;;7.90;79.10;;;;;;4804886;29;20081;-75
2021/11/24 12:01:43;;;;;;;6.53;3.30;;;7.90;79.40;;;;;;4806277;29;20059;-75
2021/11/24 12:04:17;;;;;;;8.43;3.72;;;7.80;79.50;;;;;;4811015;29;20050;-75
2021/11/24 12:06:53;;;;;;;7.68;3.65;;;7.80;79.80;;;;;;4824288;29;20061;-74
2021/11/24 12:09:35;;;;;;;6.65;2.97;;;7.90;79.70;;;;;;4823942;29;20062;-74
2021/11/24 12:12:12;;;;;;;4.57;3.63;;;8.00;79.80;;;;;;4823363;29;20063;-74
2021/11/24 12:14:50;;;;;;;4.90;2.72;;;8.10;79.40;;;;;;4823892;29;20065;-75
2021/11/24 12:17:48;;;;;;;4.13;3.35;;;8.30;78.70;;;;;;4824409;29;20062;-75
2021/11/24 12:20:39;;;;;;;4.15;3.13;;;8.70;76.90;;;;;;4805545;29;20057;-75
2021/11/24 12:23:26;;;;;;;5.43;2.95;;;9.00;76.30;;;;;;4805939;29;20053;-74
2021/11/24 12:25:55;;;;;;;4.65;3.13;;;9.30;75.60;;;;;;4805508;29;20057;-74
2021/11/24 12:28:31;;;;;;;8.70;3.40;;;9.30;75.00;;;;;;4823792;29;20050;-75
2021/11/24 12:31:03;;;;;;;4.55;3.20;;;9.30;75.30;;;;;;4822963;29;20406;-73
2021/11/24 12:33:41;;;;;;;6.55;3.25;;;9.30;75.20;;;;;;4823597;29;20485;-73
2021/11/24 12:36:15;;;;;;;5.35;3.05;;;9.30;75.30;;;;;;4822526;29;20411;-74
2021/11/24 12:38:46;;;;;;;11.20;3.50;;;9.20;75.10;;;;;;4823814;29;20497;-74
2021/11/24 12:41:29;;;;;;;9.63;3.45;;;9.30;75.00;;;;;;4822445;29;20512;-74
2021/11/24 12:44:02;;;;;;;8.07;2.78;;;9.40;75.10;;;;;;4822421;29;20149;-74
2021/11/24 12:46:34;;;;;;;3.15;2.60;;;9.40;74.20;;;;;;4822559;29;20054;-75
2021/11/24 12:49:10;;;;;;;4.82;2.70;;;9.30;74.10;;;;;;4823465;29;20050;-74
2021/11/24 12:51:46;;;;;;;5.55;3.25;;;9.30;73.90;;;;;;4791739;29;20058;-74
2021/11/24 12:54:21;;;;;;;4.85;2.55;;;9.10;74.40;;;;;;4823228;29;20066;-75
2021/11/24 12:56:50;;;;;;;5.95;2.60;;;9.10;74.90;;;;;;4811423;29;20047;-74
2021/11/24 12:59:34;;;;;;;6.35;4.13;;;9.00;74.40;;;;;;4823398;29;20058;-74
2021/11/24 13:02:06;;;;;;;;;;;9.00;74.40;;;;;;4823901;29;20065;-74
2021/11/24 13:04:41;;;;;;;5.32;2.67;;;8.80;74.60;;;;;;4823457;29;20253;-74
2021/11/24 13:07:24;;;;;;;4.85;2.30;;;8.80;74.70;;;;;;4823184;29;20053;-75